Time;durP1;ratioP1;P1;durP2;ratioP2;P2;SDS_P1;SDS_P2;PMS_P1;PMS_P2;Temp;Humidity;BMP_temperature;BMP_pressure;BME280_temperature;BME280_humidity;BME280_pressure;Samples;Min_cycle;Max_cycle;Signal;HPM_P1;HPM_P2
2022/11/08 00:02:23;;;;;;;;;0.00;0.00;;;;;;;;4759430;30;28316;-96
2022/11/08 00:04:49;;;;;;;;;0.00;0.00;;;;;;;;4742409;30;29746;-96
2022/11/08 00:15:32;;;;;;;;;0.00;0.00;;;;;;;;4761056;30;28037;-96
2022/11/08 00:17:57;;;;;;;;;0.00;0.00;;;;;;;;4735487;30;361281;-96
2022/11/08 00:20:22;;;;;;;;;0.00;0.00;;;;;;;;4745315;30;28474;-96
2022/11/08 00:22:48;;;;;;;;;0.00;0.00;;;;;;;;4744626;30;27953;-96
2022/11/08 00:25:13;;;;;;;;;0.00;0.00;;;;;;;;4774669;29;29669;-96
2022/11/08 00:27:39;;;;;;;;;0.00;0.00;;;;;;;;4744908;30;27897;-96
2022/11/08 00:30:05;;;;;;;;;0.00;0.00;;;;;;;;4747474;30;27976;-96
2022/11/08 00:32:31;;;;;;;;;0.00;0.00;;;;;;;;4750043;30;28022;-96
2022/11/08 00:34:57;;;;;;;;;0.00;0.00;;;;;;;;4763616;30;28372;-96
2022/11/08 00:37:22;;;;;;;;;0.00;0.00;;;;;;;;4749352;30;27922;-96
2022/11/08 00:39:48;;;;;;;;;0.00;0.00;;;;;;;;4749452;30;27931;-96
2022/11/08 00:42:13;;;;;;;;;0.00;0.00;;;;;;;;4778303;29;28509;-96
2022/11/08 00:44:39;;;;;;;;;8.33;8.33;;;;;;;;4746919;30;28422;-96
2022/11/08 00:47:04;;;;;;;;;0.00;0.00;;;;;;;;4744300;30;28406;-96
2022/11/08 00:49:30;;;;;;;;;0.00;0.00;;;;;;;;4754928;29;28268;-96
2022/11/08 00:51:55;;;;;;;;;0.00;0.00;;;;;;;;4763240;29;28734;-96
2022/11/08 00:54:20;;;;;;;;;0.00;0.00;;;;;;;;4761931;29;30728;-96
2022/11/08 00:56:46;;;;;;;;;6.67;6.67;;;;;;;;4759455;29;28675;-96
2022/11/08 00:59:13;;;;;;;;;0.00;0.00;;;;;;;;4759049;29;28456;-96
2022/11/08 01:01:38;;;;;;;;;0.00;0.00;;;;;;;;4756419;29;28473;-96
2022/11/08 01:04:04;;;;;;;;;0.00;0.00;;;;;;;;4747278;30;28617;-96
2022/11/08 01:06:30;;;;;;;;;0.00;0.00;;;;;;;;4738169;30;29321;-96
2022/11/08 01:08:55;;;;;;;;;0.00;0.00;;;;;;;;4733677;30;28450;-96
2022/11/08 01:11:22;;;;;;;;;0.00;0.00;;;;;;;;4721440;30;27952;-96
2022/11/08 01:13:48;;;;;;;;;0.00;0.00;;;;;;;;4719853;30;29907;-96
2022/11/08 01:16:14;;;;;;;;;0.00;0.00;;;;;;;;4720133;30;28584;-96
2022/11/08 01:18:40;;;;;;;;;0.00;0.00;;;;;;;;4755116;29;28295;-96
2022/11/08 01:21:05;;;;;;;;;0.00;0.00;;;;;;;;4754992;29;28223;-96
2022/11/08 01:23:30;;;;;;;;;0.00;0.00;;;;;;;;4756268;29;30336;-96
2022/11/08 01:25:56;;;;;;;;;0.00;0.00;;;;;;;;4753961;29;29356;-96
2022/11/08 01:28:21;;;;;;;;;0.00;0.00;;;;;;;;4744694;30;28399;-96
2022/11/08 01:30:46;;;;;;;;;0.00;0.00;;;;;;;;4740672;30;28548;-96
2022/11/08 01:33:12;;;;;;;;;0.00;0.00;;;;;;;;4737479;30;29747;-96
2022/11/08 01:35:37;;;;;;;;;0.00;0.00;;;;;;;;4737617;30;28839;-96
2022/11/08 01:38:03;;;;;;;;;0.00;0.00;;;;;;;;4754579;29;28487;-96
2022/11/08 01:40:29;;;;;;;;;0.00;0.00;;;;;;;;4755720;29;28118;-96
2022/11/08 01:42:54;;;;;;;;;0.00;0.00;;;;;;;;4755237;29;29991;-96
2022/11/08 01:45:38;;;;;;;;;0.00;0.00;;;;;;;;4762218;29;29310;-96
2022/11/08 01:48:04;;;;;;;;;0.00;0.00;;;;;;;;4746684;30;27904;-96
2022/11/08 01:50:29;;;;;;;;;0.00;0.00;;;;;;;;4724525;30;28062;-96
2022/11/08 01:52:58;;;;;;;;;0.00;0.00;;;;;;;;4764599;29;31629;-96
2022/11/08 01:55:28;;;;;;;;;0.00;0.00;;;;;;;;4767569;29;28420;-96
2022/11/08 01:57:56;;;;;;;;;0.00;0.00;;;;;;;;4752774;30;27867;-96
2022/11/08 02:00:21;;;;;;;;;0.00;0.00;;;;;;;;4749519;30;28360;-96
2022/11/08 02:02:59;;;;;;;;;0.00;0.00;;;;;;;;4743629;30;28322;-96
2022/11/08 02:05:25;;;;;;;;;0.00;0.00;;;;;;;;4743375;30;28516;-96
2022/11/08 02:07:57;;;;;;;;;0.00;0.00;;;;;;;;4744987;30;28411;-96
2022/11/08 02:10:25;;;;;;;;;0.00;0.00;;;;;;;;4742982;30;28021;-96
2022/11/08 02:12:51;;;;;;;;;0.00;0.00;;;;;;;;4763133;29;29930;-96
2022/11/08 02:15:18;;;;;;;;;0.00;0.00;;;;;;;;4761987;29;28840;-96
2022/11/08 02:17:43;;;;;;;;;0.00;0.00;;;;;;;;4758988;29;28655;-96
2022/11/08 02:20:09;;;;;;;;;0.00;0.00;;;;;;;;4748118;30;27872;-96
2022/11/08 02:22:37;;;;;;;;;0.00;0.00;;;;;;;;4725674;30;30038;-96
2022/11/08 02:25:02;;;;;;;;;0.00;0.00;;;;;;;;4726375;30;28548;-96
2022/11/08 02:27:27;;;;;;;;;0.00;0.00;;;;;;;;4727006;30;28398;-96
2022/11/08 02:29:53;;;;;;;;;0.00;0.00;;;;;;;;4737853;30;28534;-96
2022/11/08 02:32:19;;;;;;;;;0.00;0.00;;;;;;;;4739902;30;30167;-96
2022/11/08 02:34:46;;;;;;;;;0.00;0.00;;;;;;;;4739294;30;28871;-96
2022/11/08 02:37:13;;;;;;;;;0.00;0.00;;;;;;;;4755484;29;27900;-96
2022/11/08 02:39:38;;;;;;;;;0.00;0.00;;;;;;;;4757783;29;28537;-96
2022/11/08 02:42:04;;;;;;;;;0.00;0.00;;;;;;;;4757769;29;29746;-96
2022/11/08 02:44:29;;;;;;;;;0.00;0.00;;;;;;;;4759753;29;28704;-95
2022/11/08 02:46:54;;;;;;;;;0.00;0.00;;;;;;;;4757928;29;28643;-96
2022/11/08 02:49:19;;;;;;;;;0.00;0.00;;;;;;;;4758937;29;27943;-96
2022/11/08 02:51:45;;;;;;;;;0.00;0.00;;;;;;;;4746911;30;30452;-96
2022/11/08 02:54:10;;;;;;;;;0.00;0.00;;;;;;;;4739727;30;28997;-96
2022/11/08 02:56:35;;;;;;;;;0.00;0.00;;;;;;;;4739410;30;28466;-96
2022/11/08 02:59:00;;;;;;;;;0.00;0.00;;;;;;;;4740063;30;27857;-96
2022/11/08 03:01:26;;;;;;;;;0.00;0.00;;;;;;;;4741176;30;30346;-96
2022/11/08 03:03:51;;;;;;;;;0.00;0.00;;;;;;;;4743561;30;28517;-96
2022/11/08 03:06:16;;;;;;;;;0.00;0.00;;;;;;;;4743667;30;28468;-96
2022/11/08 03:08:41;;;;;;;;;0.00;0.00;;;;;;;;4625786;30;3661449;-96
2022/11/08 03:11:07;;;;;;;;;0.00;0.00;;;;;;;;4745745;30;29763;-96
2022/11/08 03:13:32;;;;;;;;;0.00;0.00;;;;;;;;4746588;30;29986;-96
2022/11/08 03:16:00;;;;;;;;;0.00;0.00;;;;;;;;4746786;30;27748;-96
2022/11/08 03:18:25;;;;;;;;;0.00;0.00;;;;;;;;4776412;29;28616;-96
2022/11/08 03:20:50;;;;;;;;;0.00;0.00;;;;;;;;4751110;29;29977;-96
2022/11/08 03:23:16;;;;;;;;;0.00;0.00;;;;;;;;4757625;29;28669;-96
2022/11/08 03:25:41;;;;;;;;;0.00;0.00;;;;;;;;4760462;29;28527;-96
2022/11/08 03:28:07;;;;;;;;;0.00;0.00;;;;;;;;4759428;29;28601;-96
2022/11/08 03:30:33;;;;;;;;;0.00;0.00;;;;;;;;4757885;29;30249;-96
2022/11/08 03:33:01;;;;;;;;;0.00;0.00;;;;;;;;4758525;29;29076;-96
2022/11/08 03:35:27;;;;;;;;;0.00;0.00;;;;;;;;4746604;30;28375;-96
2022/11/08 03:37:53;;;;;;;;;0.00;0.00;;;;;;;;4742042;30;28490;-96
2022/11/08 03:40:19;;;;;;;;;0.00;0.00;;;;;;;;4737882;30;29952;-96
2022/11/08 03:42:44;;;;;;;;;0.00;0.00;;;;;;;;4736760;30;28942;-95
2022/11/08 03:45:10;;;;;;;;;0.00;0.00;;;;;;;;4735728;30;28776;-96
2022/11/08 03:47:42;;;;;;;;;0.00;0.00;;;;;;;;4733441;30;27893;-96
2022/11/08 03:50:08;;;;;;;;;0.00;0.00;;;;;;;;4718528;30;29909;-96
2022/11/08 03:52:47;;;;;;;;;0.00;0.00;;;;;;;;4718843;30;28843;-96
2022/11/08 03:55:13;;;;;;;;;0.00;0.00;;;;;;;;4718617;30;27856;-96
2022/11/08 03:57:38;;;;;;;;;0.00;0.00;;;;;;;;4718549;30;28467;-96
2022/11/08 04:00:05;;;;;;;;;0.00;0.00;;;;;;;;4718983;30;30020;-96
2022/11/08 04:02:30;;;;;;;;;0.00;0.00;;;;;;;;4731653;29;28916;-96
2022/11/08 04:04:55;;;;;;;;;0.00;0.00;;;;;;;;4738072;30;28683;-95
2022/11/08 04:07:20;;;;;;;;;0.00;0.00;;;;;;;;4736216;30;28413;-96
2022/11/08 04:09:45;;;;;;;;;0.00;0.00;;;;;;;;4737279;30;30782;-96
2022/11/08 04:23:07;;;;;;;;;0.00;0.00;;;;;;;;4771838;29;27916;-95
2022/11/08 04:25:32;;;;;;;;;0.00;0.00;;;;;;;;4756604;29;28397;-96
2022/11/08 04:27:58;;;;;;;;;0.00;0.00;;;;;;;;4760344;29;28309;-96
2022/11/08 04:30:23;;;;;;;;;0.00;0.00;;;;;;;;4760776;29;30042;-96
2022/11/08 04:32:48;;;;;;;;;0.00;0.00;;;;;;;;4761186;29;28639;-96
2022/11/08 04:35:13;;;;;;;;;0.00;0.00;;;;;;;;4760495;29;27906;-96
2022/11/08 04:37:39;;;;;;;;;0.00;0.00;;;;;;;;4755845;29;28660;-96
2022/11/08 04:40:04;;;;;;;;;0.00;0.00;;;;;;;;4753503;29;31279;-96
2022/11/08 04:42:29;;;;;;;;;0.00;0.00;;;;;;;;4754550;29;28796;-95
2022/11/08 04:44:54;;;;;;;;;0.00;0.00;;;;;;;;4754209;29;28344;-96
2022/11/08 04:47:20;;;;;;;;;0.00;0.00;;;;;;;;4741526;30;28459;-96
2022/11/08 04:49:45;;;;;;;;;0.00;0.00;;;;;;;;4738274;30;30924;-96
2022/11/08 04:52:10;;;;;;;;;0.00;0.00;;;;;;;;4736578;30;28662;-96
2022/11/08 04:54:35;;;;;;;;;0.00;0.00;;;;;;;;4737508;30;27884;-96
2022/11/08 04:57:00;;;;;;;;;0.00;0.00;;;;;;;;4736223;30;28386;-96
2022/11/08 04:59:26;;;;;;;;;0.00;0.00;;;;;;;;4736544;30;29707;-96
2022/11/08 05:01:51;;;;;;;;;0.00;0.00;;;;;;;;4748274;29;28656;-96
2022/11/08 05:04:16;;;;;;;;;0.00;0.00;;;;;;;;4755361;29;28300;-96
2022/11/08 05:06:41;;;;;;;;;0.00;0.00;;;;;;;;4757634;29;27850;-96
2022/11/08 05:09:07;;;;;;;;;0.00;0.00;;;;;;;;4747820;30;29811;-96
2022/11/08 05:11:32;;;;;;;;;0.00;0.00;;;;;;;;4739052;30;28864;-96
2022/11/08 05:13:57;;;;;;;;;0.00;0.00;;;;;;;;4738085;30;28319;-96
2022/11/08 05:16:24;;;;;;;;;0.00;0.00;;;;;;;;4747188;29;28552;-96
2022/11/08 05:18:50;;;;;;;;;0.00;0.00;;;;;;;;4756933;29;30216;-96
2022/11/08 05:24:00;;;;;;;;;0.00;0.00;;;;;;;;4769250;29;28255;-96
2022/11/08 05:26:26;;;;;;;;;0.00;0.00;;;;;;;;4752706;29;28343;-96
2022/11/08 05:28:51;;;;;;;;;0.00;0.00;;;;;;;;4750980;29;29751;-96
2022/11/08 05:31:16;;;;;;;;;0.00;0.00;;;;;;;;4735503;30;28835;-96
2022/11/08 05:33:42;;;;;;;;;0.00;0.00;;;;;;;;4737218;30;27788;-96
2022/11/08 05:36:09;;;;;;;;;0.00;0.00;;;;;;;;4738925;30;28553;-96
2022/11/08 05:38:35;;;;;;;;;0.00;0.00;;;;;;;;4744127;30;30178;-96
2022/11/08 05:41:01;;;;;;;;;0.00;0.00;;;;;;;;4746971;30;28788;-96
2022/11/08 05:43:26;;;;;;;;;0.00;0.00;;;;;;;;4744049;30;28355;-96
2022/11/08 05:45:51;;;;;;;;;0.00;0.00;;;;;;;;4744960;30;27948;-96
2022/11/08 05:48:17;;;;;;;;;0.00;0.00;;;;;;;;4743964;30;29913;-96
2022/11/08 05:50:42;;;;;;;;;0.00;0.00;;;;;;;;4743068;30;28664;-96
2022/11/08 05:53:07;;;;;;;;;0.00;0.00;;;;;;;;4745405;30;28408;-96
2022/11/08 05:55:32;;;;;;;;;0.00;0.00;;;;;;;;4743871;30;28344;-96
2022/11/08 05:57:58;;;;;;;;;0.00;0.00;;;;;;;;4739514;30;30288;-96
2022/11/08 06:00:23;;;;;;;;;0.00;0.00;;;;;;;;4737409;30;28629;-96
2022/11/08 06:02:48;;;;;;;;;0.00;0.00;;;;;;;;4738985;30;27855;-96
2022/11/08 06:05:13;;;;;;;;;0.00;0.00;;;;;;;;4736005;30;28427;-96
2022/11/08 06:07:39;;;;;;;;;0.00;0.00;;;;;;;;4736918;30;31284;-96
2022/11/08 06:10:04;;;;;;;;;0.00;0.00;;;;;;;;4738456;29;29428;-96
2022/11/08 06:12:29;;;;;;;;;0.00;0.00;;;;;;;;4739344;30;27958;-96
2022/11/08 06:14:55;;;;;;;;;0.00;0.00;;;;;;;;4739347;30;27968;-96
2022/11/08 06:17:20;;;;;;;;;0.00;0.00;;;;;;;;4740054;30;29740;-96
2022/11/08 06:19:45;;;;;;;;;0.00;0.00;;;;;;;;4739280;30;28558;-96
2022/11/08 06:22:10;;;;;;;;;0.00;0.00;;;;;;;;4742835;29;28376;-96
2022/11/08 06:24:36;;;;;;;;;0.00;0.00;;;;;;;;4757099;29;28491;-96
2022/11/08 06:27:01;;;;;;;;;0.00;0.00;;;;;;;;4758970;29;29866;-96
2022/11/08 06:29:26;;;;;;;;;0.00;0.00;;;;;;;;4763232;29;28901;-96
2022/11/08 06:32:22;;;;;;;;;0.00;0.00;;;;;;;;4752270;30;27934;-96
2022/11/08 06:34:54;;;;;;;;;0.00;0.00;;;;;;;;4759797;30;27956;-96
2022/11/08 06:37:56;;;;;;;;;0.00;0.00;;;;;;;;4789694;29;28708;-96
2022/11/08 06:40:40;;;;;;;;;0.00;0.00;;;;;;;;4944195;24;28474;-96
2022/11/08 06:48:16;;;;;;;;;0.00;0.00;;;;;;;;4879123;24;28253;-96
2022/11/08 06:50:42;;;;;;;;;0.00;0.00;;;;;;;;4758005;30;28668;-96
2022/11/08 06:53:09;;;;;;;;;0.00;0.00;;;;;;;;4743523;30;27920;-96
2022/11/08 06:55:35;;;;;;;;;0.00;0.00;;;;;;;;4759271;29;27973;-96
2022/11/08 06:58:00;;;;;;;;;0.00;0.00;;;;;;;;4756932;30;30340;-96
2022/11/08 07:00:32;;;;;;;;;0.00;0.00;;;;;;;;4770234;30;27775;-96
2022/11/08 07:03:00;;;;;;;;;0.00;0.00;;;;;;;;4758584;30;28124;-96
2022/11/08 07:05:26;;;;;;;;;1.67;1.67;;;;;;;;4755065;30;28307;-96
2022/11/08 07:07:52;;;;;;;;;0.00;0.00;;;;;;;;4852276;24;28514;-96
2022/11/08 07:10:26;;;;;;;;;0.00;0.00;;;;;;;;4790451;24;28701;-96
2022/11/08 07:13:14;;;;;;;;;0.00;0.00;;;;;;;;4776272;29;28382;-96
2022/11/08 07:16:01;;;;;;;;;0.00;0.00;;;;;;;;4772952;30;27905;-96
2022/11/08 07:18:28;;;;;;;;;0.00;0.00;;;;;;;;4759324;30;28739;-96
2022/11/08 07:21:21;;;;;;;;;0.00;0.00;;;;;;;;4775961;29;27838;-96
2022/11/08 07:24:09;;;;;;;;;0.00;0.00;;;;;;;;4773199;30;27832;-96
2022/11/08 07:26:54;;;;;;;;;0.00;0.00;;;;;;;;4766773;30;27912;-93
2022/11/08 07:29:20;;;;;;;;;0.00;0.00;;;;;;;;4734317;30;29697;-89
2022/11/08 07:31:46;;;;;;;;;0.00;0.00;;;;;;;;4750119;30;28535;-88
2022/11/08 07:34:11;;;;;;;;;0.00;0.00;;;;;;;;4750293;30;28494;-87
2022/11/08 07:36:36;;;;;;;;;0.00;0.00;;;;;;;;4749577;30;28477;-89
2022/11/08 07:39:01;;;;;;;;;0.00;0.00;;;;;;;;4750143;30;29301;-89
2022/11/08 07:41:26;;;;;;;;;0.00;0.00;;;;;;;;4749181;30;28522;-88
2022/11/08 07:43:51;;;;;;;;;0.00;0.00;;;;;;;;4749977;30;28460;-87
2022/11/08 07:46:17;;;;;;;;;0.00;0.00;;;;;;;;4749845;30;28950;-88
2022/11/08 07:48:42;;;;;;;;;0.00;0.00;;;;;;;;4733289;30;29570;-88
2022/11/08 07:51:07;;;;;;;;;0.00;0.00;;;;;;;;4731321;30;28591;-88
2022/11/08 07:53:32;;;;;;;;;0.00;0.00;;;;;;;;4732024;30;28546;-88
2022/11/08 07:55:57;;;;;;;;;0.00;0.00;;;;;;;;4730718;30;28555;-88
2022/11/08 07:58:23;;;;;;;;;0.00;0.00;;;;;;;;4716340;30;28604;-89
2022/11/08 08:00:48;;;;;;;;;0.00;0.00;;;;;;;;4733719;30;27940;-88
2022/11/08 08:03:14;;;;;;;;;0.00;0.00;;;;;;;;4742097;30;28470;-88
2022/11/08 08:05:41;;;;;;;;;0.00;0.00;;;;;;;;4742029;30;28439;-88
2022/11/08 08:08:06;;;;;;;;;0.00;0.00;;;;;;;;4737352;30;28502;-89
2022/11/08 08:10:32;;;;;;;;;0.00;0.00;;;;;;;;4744127;30;28282;-88
2022/11/08 08:12:57;;;;;;;;;0.00;0.00;;;;;;;;4716592;30;28371;-88
2022/11/08 08:15:23;;;;;;;;;0.00;0.00;;;;;;;;4714959;30;28590;-89
2022/11/08 08:17:48;;;;;;;;;0.00;0.00;;;;;;;;4733109;30;28726;-87
2022/11/08 08:20:13;;;;;;;;;0.00;0.00;;;;;;;;4726725;30;28648;-87
2022/11/08 08:22:44;;;;;;;;;0.00;0.00;;;;;;;;4730973;30;28560;-88
2022/11/08 08:25:09;;;;;;;;;0.00;0.00;;;;;;;;4722463;30;28552;-88
2022/11/08 08:27:34;;;;;;;;;0.00;0.00;;;;;;;;4734405;30;30095;-88
2022/11/08 08:29:59;;;;;;;;;0.00;0.00;;;;;;;;4715937;30;28459;-90
2022/11/08 08:32:25;;;;;;;;;0.00;0.00;;;;;;;;4724899;30;28537;-87
2022/11/08 08:34:50;;;;;;;;;0.00;0.00;;;;;;;;4715078;30;28431;-87
2022/11/08 08:37:16;;;;;;;;;0.00;0.00;;;;;;;;4723915;30;30154;-90
2022/11/08 08:39:41;;;;;;;;;0.00;0.00;;;;;;;;4731336;30;28571;-88
2022/11/08 08:42:06;;;;;;;;;0.00;0.00;;;;;;;;4730855;30;28674;-88
2022/11/08 08:44:31;;;;;;;;;0.00;0.00;;;;;;;;4714917;30;28578;-89
2022/11/08 08:46:56;;;;;;;;;0.00;0.00;;;;;;;;4720784;30;29859;-88
2022/11/08 08:49:22;;;;;;;;;0.00;0.00;;;;;;;;4727729;30;28449;-90
2022/11/08 08:51:47;;;;;;;;;0.00;0.00;;;;;;;;4720330;30;28673;-89
2022/11/08 08:54:14;;;;;;;;;0.00;0.00;;;;;;;;4721900;30;28531;-88
2022/11/08 08:56:39;;;;;;;;;0.00;0.00;;;;;;;;4737898;30;28577;-90
2022/11/08 08:59:04;;;;;;;;;0.00;0.00;;;;;;;;4735163;30;28567;-89
2022/11/08 09:01:29;;;;;;;;;0.00;0.00;;;;;;;;4724540;30;28525;-88
2022/11/08 09:03:55;;;;;;;;;0.00;0.00;;;;;;;;4745615;30;28452;-88
2022/11/08 09:06:20;;;;;;;;;0.00;0.00;;;;;;;;4739452;30;29095;-88
2022/11/08 09:08:45;;;;;;;;;0.00;0.00;;;;;;;;4735896;30;28403;-89
2022/11/08 09:11:10;;;;;;;;;0.00;0.00;;;;;;;;4733917;30;28881;-89
2022/11/08 09:13:35;;;;;;;;;0.00;0.00;;;;;;;;4733838;30;28529;-88
2022/11/08 09:16:01;;;;;;;;;0.00;0.00;;;;;;;;4742971;30;28430;-89
2022/11/08 09:18:27;;;;;;;;;0.00;0.00;;;;;;;;4736431;30;28474;-90
2022/11/08 09:20:55;;;;;;;;;0.00;0.00;;;;;;;;4735351;30;28475;-89
2022/11/08 09:23:20;;;;;;;;;0.00;0.00;;;;;;;;4734350;30;28895;-88
2022/11/08 09:25:45;;;;;;;;;0.00;0.00;;;;;;;;4736845;30;29761;-87
2022/11/08 09:28:10;;;;;;;;;0.00;0.00;;;;;;;;4739701;30;28359;-89
2022/11/08 09:30:35;;;;;;;;;0.00;0.00;;;;;;;;4737459;30;28531;-88
2022/11/08 09:33:01;;;;;;;;;0.00;0.00;;;;;;;;4735785;30;28473;-89
2022/11/08 09:35:26;;;;;;;;;0.00;0.00;;;;;;;;4745629;30;28427;-89
2022/11/08 09:37:52;;;;;;;;;0.00;0.00;;;;;;;;4718477;30;29794;-88
2022/11/08 09:40:19;;;;;;;;;0.00;0.00;;;;;;;;4735094;30;27845;-87
2022/11/08 09:42:50;;;;;;;;;0.00;0.00;;;;;;;;4718534;30;28577;-89
2022/11/08 09:45:29;;;;;;;;;0.00;0.00;;;;;;;;4717908;30;30039;-88
2022/11/08 09:47:56;;;;;;;;;0.00;0.00;;;;;;;;4720383;30;29028;-86
2022/11/08 09:50:25;;;;;;;;;0.00;0.00;;;;;;;;4717107;30;28388;-89
2022/11/08 09:52:59;;;;;;;;;0.00;0.00;;;;;;;;4718750;30;28999;-86
2022/11/08 09:55:32;;;;;;;;;0.00;0.00;;;;;;;;4738038;30;28506;-86
2022/11/08 09:57:57;;;;;;;;;0.00;0.00;;;;;;;;4720174;30;30116;-87
2022/11/08 10:00:22;;;;;;;;;0.00;0.00;;;;;;;;4737094;30;28435;-86
2022/11/08 10:02:48;;;;;;;;;0.00;0.00;;;;;;;;4718237;30;28499;-87
2022/11/08 10:05:15;;;;;;;;;0.00;0.00;;;;;;;;4724946;30;30151;-91
2022/11/08 10:07:46;;;;;;;;;0.00;0.00;;;;;;;;4719390;30;28592;-87
2022/11/08 10:10:17;;;;;;;;;0.00;0.00;;;;;;;;4723664;30;28490;-95
2022/11/08 10:12:58;;;;;;;;;0.00;0.00;;;;;;;;4720058;30;27823;-91
2022/11/08 10:15:36;;;;;;;;;0.00;0.00;;;;;;;;4726279;30;31633;-95
2022/11/08 10:18:20;;;;;;;;;0.00;0.00;;;;;;;;4725487;30;28611;-94
2022/11/08 10:20:45;;;;;;;;;0.00;0.00;;;;;;;;4722753;30;28467;-91
2022/11/08 10:23:13;;;;;;;;;0.00;0.00;;;;;;;;4720727;30;28479;-91
2022/11/08 10:25:44;;;;;;;;;0.00;0.00;;;;;;;;4729642;30;30107;-93
2022/11/08 10:28:13;;;;;;;;;0.00;0.00;;;;;;;;4743891;30;28512;-93
2022/11/08 10:30:40;;;;;;;;;0.00;0.00;;;;;;;;4733249;30;28949;-95
2022/11/08 10:33:28;;;;;;;;;0.00;0.00;;;;;;;;4734998;30;28411;-96
2022/11/08 10:35:53;;;;;;;;;0.00;0.00;;;;;;;;4723364;30;28552;-90
2022/11/08 10:38:20;;;;;;;;;0.00;0.00;;;;;;;;4738033;30;28527;-86
2022/11/08 10:41:04;;;;;;;;;0.00;0.00;;;;;;;;4737842;30;28683;-89
2022/11/08 10:43:34;;;;;;;;;0.00;0.00;;;;;;;;4724711;30;28589;-88
2022/11/08 10:45:59;;;;;;;;;0.00;0.00;;;;;;;;4752911;30;28632;-93
2022/11/08 10:48:24;;;;;;;;;0.00;0.00;;;;;;;;4745408;30;28483;-91
2022/11/08 10:50:51;;;;;;;;;0.00;0.00;;;;;;;;4747450;30;28489;-89
2022/11/08 10:53:19;;;;;;;;;0.00;0.00;;;;;;;;4716965;30;28542;-90
2022/11/08 10:55:48;;;;;;;;;0.00;0.00;;;;;;;;4731087;30;28518;-89
2022/11/08 10:58:27;;;;;;;;;0.00;0.00;;;;;;;;4722855;30;29028;-90
2022/11/08 11:01:04;;;;;;;;;0.00;0.00;;;;;;;;4734441;30;28569;-91
2022/11/08 11:03:29;;;;;;;;;0.00;0.00;;;;;;;;4727594;30;28534;-94
2022/11/08 11:06:04;;;;;;;;;0.00;0.00;;;;;;;;4720641;30;31150;-94
2022/11/08 11:08:30;;;;;;;;;0.00;0.00;;;;;;;;4723451;30;45884;-92
2022/11/08 11:10:55;;;;;;;;;0.00;0.00;;;;;;;;4722459;30;28469;-93
2022/11/08 11:13:25;;;;;;;;;0.00;0.00;;;;;;;;4726148;30;28425;-94
2022/11/08 11:15:57;;;;;;;;;0.00;0.00;;;;;;;;4936600;24;28500;-94
2022/11/08 11:18:22;;;;;;;;;0.00;0.00;;;;;;;;4726057;30;28585;-93
2022/11/08 11:21:02;;;;;;;;;0.00;0.00;;;;;;;;4728945;30;28446;-96
2022/11/08 11:23:32;;;;;;;;;0.00;0.00;;;;;;;;4737694;30;29928;-93
2022/11/08 11:25:57;;;;;;;;;0.00;0.00;;;;;;;;4727793;30;29809;-91
2022/11/08 11:28:22;;;;;;;;;0.00;0.00;;;;;;;;4743053;30;28770;-94
2022/11/08 11:30:57;;;;;;;;;0.00;0.00;;;;;;;;4728187;30;28620;-93
2022/11/08 11:33:24;;;;;;;;;0.00;0.00;;;;;;;;4740753;30;28458;-92
2022/11/08 11:36:08;;;;;;;;;0.00;0.00;;;;;;;;4738689;30;30337;-93
2022/11/08 11:38:54;;;;;;;;;0.00;0.00;;;;;;;;4738802;30;28559;-95
2022/11/08 11:43:56;;;;;;;;;0.00;0.00;;;;;;;;1572488;24;29239;-89
2022/11/08 11:46:26;;;;;;;;;0.00;0.00;;;;;;;;4739622;30;28503;-95
2022/11/08 11:48:58;;;;;;;;;0.00;0.00;;;;;;;;4724270;30;29151;-96
2022/11/08 11:51:25;;;;;;;;;0.00;0.00;;;;;;;;4750163;30;27836;-96
2022/11/08 11:53:57;;;;;;;;;0.00;0.00;;;;;;;;4947397;24;27884;-96
2022/11/08 11:56:39;;;;;;;;;0.00;0.00;;;;;;;;4733964;30;29391;-95
2022/11/08 11:59:10;;;;;;;;;0.67;0.67;;;;;;;;4745152;30;27832;-91
2022/11/08 12:01:35;;;;;;;;;0.00;0.00;;;;;;;;4761508;30;28489;-96
2022/11/08 12:04:19;;;;;;;;;0.00;0.00;;;;;;;;4769795;29;27765;-96
2022/11/08 12:06:53;;;;;;;;;0.00;0.00;;;;;;;;4751554;30;28374;-96
2022/11/08 12:09:29;;;;;;;;;0.00;0.00;;;;;;;;4737482;30;45395;-96
2022/11/08 12:12:02;;;;;;;;;0.00;0.00;;;;;;;;4723203;30;45360;-96
2022/11/08 12:14:31;;;;;;;;;0.00;0.00;;;;;;;;4727797;29;45472;-96
2022/11/08 12:17:04;;;;;;;;;0.00;0.00;;;;;;;;4731801;30;45191;-96
2022/11/08 12:19:30;;;;;;;;;0.00;0.00;;;;;;;;4727601;30;45321;-96
2022/11/08 12:21:58;;;;;;;;;0.00;0.00;;;;;;;;4736012;30;45419;-95
2022/11/08 13:14:52;;;;;;;;;0.00;0.00;;;;;;;;3326077;24;16469;-95
2022/11/08 13:17:17;;;;;;;;;0.00;0.00;;;;;;;;4779374;30;11661;-96
2022/11/08 13:22:32;;;;;;;;;0.00;0.00;;;;;;;;4778976;24;8785;-96
2022/11/08 13:25:13;;;;;;;;;0.00;0.00;;;;;;;;4746911;30;12590;-96
2022/11/08 13:27:39;;;;;;;;;0.00;0.00;;;;;;;;4758758;30;14234;-96
2022/11/08 13:30:10;;;;;;;;;0.00;0.00;;;;;;;;4772647;30;14066;-96
2022/11/08 13:32:41;;;;;;;;;0.00;0.00;;;;;;;;4753779;30;16453;-95
2022/11/08 13:35:33;;;;;;;;;0.00;0.00;;;;;;;;4736820;30;8805;-96
2022/11/08 13:38:04;;;;;;;;;0.00;0.00;;;;;;;;4676561;30;14758;-96
2022/11/08 13:40:42;;;;;;;;;0.00;0.00;;;;;;;;4672752;30;13129;-96
2022/11/08 13:43:25;;;;;;;;;0.00;0.00;;;;;;;;4666594;30;21476;-96
2022/11/08 13:45:51;;;;;;;;;0.00;0.00;;;;;;;;4665348;30;20529;-96
2022/11/08 13:48:23;;;;;;;;;0.00;0.00;;;;;;;;4681043;30;9808;-96
2022/11/08 13:50:49;;;;;;;;;0.33;0.33;;;;;;;;4682843;30;26540;-96
2022/11/08 13:53:17;;;;;;;;;0.00;0.00;;;;;;;;4662984;30;27877;-96
2022/11/08 13:55:44;;;;;;;;;0.00;0.00;;;;;;;;4660735;30;27771;-96
2022/11/08 13:58:27;;;;;;;;;0.00;0.00;;;;;;;;4661418;30;24216;-96
2022/11/08 14:00:53;;;;;;;;;0.00;0.00;;;;;;;;4676449;30;27921;-96
2022/11/08 14:03:30;;;;;;;;;0.00;0.00;;;;;;;;4671006;30;8899;-96
2022/11/08 14:05:55;;;;;;;;;0.00;0.00;;;;;;;;4678786;30;8842;-96
2022/11/08 14:08:21;;;;;;;;;0.00;0.00;;;;;;;;4672152;30;24238;-96
2022/11/08 14:10:57;;;;;;;;;0.00;0.00;;;;;;;;4660273;30;27896;-96
2022/11/08 14:13:26;;;;;;;;;0.00;0.00;;;;;;;;4651939;30;29507;-96
2022/11/08 14:15:55;;;;;;;;;0.00;0.00;;;;;;;;4701089;30;28643;-96
2022/11/08 14:18:27;;;;;;;;;0.00;0.00;;;;;;;;4725149;30;28076;-96
2022/11/08 14:20:53;;;;;;;;;0.00;0.00;;;;;;;;4755854;30;8868;-96
2022/11/08 14:23:18;;;;;;;;;0.00;0.00;;;;;;;;4751663;30;21615;-96
2022/11/08 14:25:47;;;;;;;;;0.00;0.00;;;;;;;;4738712;30;16266;-96
2022/11/08 14:28:29;;;;;;;;;0.00;0.00;;;;;;;;4767890;30;13225;-96
2022/11/08 14:30:54;;;;;;;;;0.00;0.00;;;;;;;;4762221;30;12586;-96
2022/11/08 14:33:24;;;;;;;;;0.00;0.00;;;;;;;;4756679;30;18620;-96
2022/11/08 14:36:00;;;;;;;;;0.00;0.00;;;;;;;;4739973;30;18176;-96
2022/11/08 14:38:27;;;;;;;;;0.00;0.00;;;;;;;;4748423;30;11596;-96
2022/11/08 14:40:54;;;;;;;;;0.00;0.00;;;;;;;;4730937;30;11708;-96
2022/11/08 14:43:21;;;;;;;;;0.00;0.00;;;;;;;;4746301;30;11525;-96
2022/11/08 14:45:46;;;;;;;;;0.00;0.00;;;;;;;;4728019;30;11561;-96
2022/11/08 14:48:17;;;;;;;;;0.00;0.00;;;;;;;;4753566;30;11600;-96
2022/11/08 14:50:42;;;;;;;;;0.00;0.00;;;;;;;;4750789;30;8781;-96
2022/11/08 14:53:18;;;;;;;;;0.00;0.00;;;;;;;;4726828;30;11617;-96
2022/11/08 14:55:43;;;;;;;;;0.00;0.00;;;;;;;;4739080;30;8854;-96
2022/11/08 14:58:12;;;;;;;;;22.33;19.33;;;;;;;;4742083;30;11698;-96
2022/11/08 15:00:40;;;;;;;;;0.00;0.00;;;;;;;;4740407;30;8871;-96
2022/11/08 15:03:05;;;;;;;;;0.00;0.00;;;;;;;;4743681;30;11597;-96
2022/11/08 15:05:37;;;;;;;;;0.00;0.00;;;;;;;;4726071;30;11622;-96
2022/11/08 15:08:04;;;;;;;;;0.00;0.00;;;;;;;;4747866;30;8821;-96
2022/11/08 15:10:29;;;;;;;;;0.00;0.00;;;;;;;;4742638;30;11598;-96
2022/11/08 15:12:55;;;;;;;;;0.00;0.00;;;;;;;;4756864;30;11631;-96
2022/11/08 15:15:23;;;;;;;;;0.00;0.00;;;;;;;;4753254;30;8848;-96
2022/11/08 15:18:09;;;;;;;;;0.00;0.00;;;;;;;;4820220;24;11553;-94
2022/11/08 15:20:34;;;;;;;;;0.00;0.00;;;;;;;;4760631;29;11556;-96
2022/11/08 15:23:00;;;;;;;;;0.00;0.00;;;;;;;;4758421;30;11606;-96
2022/11/08 15:25:32;;;;;;;;;0.00;0.00;;;;;;;;4770110;30;8846;-96
2022/11/08 15:28:11;;;;;;;;;0.00;0.00;;;;;;;;4783054;24;8868;-95
2022/11/08 15:30:39;;;;;;;;;0.00;0.00;;;;;;;;4745101;30;11806;-96
2022/11/08 15:33:16;;;;;;;;;0.00;0.00;;;;;;;;4745788;30;11741;-96
2022/11/08 15:35:45;;;;;;;;;0.00;0.00;;;;;;;;4748852;30;11727;-96
2022/11/08 15:38:28;;;;;;;;;0.00;0.00;;;;;;;;4750609;30;11976;-96
2022/11/08 15:40:54;;;;;;;;;0.75;0.75;;;;;;;;4765472;30;11670;-95
2022/11/08 15:43:34;;;;;;;;;0.00;0.00;;;;;;;;4769732;30;11727;-96
2022/11/08 15:46:00;;;;;;;;;0.00;0.00;;;;;;;;4774259;30;11900;-96
2022/11/08 15:48:28;;;;;;;;;0.00;0.00;;;;;;;;4751653;30;11670;-96
2022/11/08 15:50:55;;;;;;;;;0.00;0.00;;;;;;;;4754894;30;11724;-96
2022/11/08 15:53:20;;;;;;;;;0.00;0.00;;;;;;;;4760818;30;11651;-96
2022/11/08 15:55:50;;;;;;;;;0.00;0.00;;;;;;;;4748433;30;11723;-95
2022/11/08 15:58:19;;;;;;;;;0.00;0.00;;;;;;;;4755837;30;8866;-96
2022/11/08 16:00:47;;;;;;;;;0.00;0.00;;;;;;;;4742153;30;11703;-96
2022/11/08 16:03:13;;;;;;;;;0.00;0.00;;;;;;;;4747585;30;11711;-96
2022/11/08 16:05:38;;;;;;;;;0.00;0.00;;;;;;;;4745161;30;11706;-96
2022/11/08 16:08:03;;;;;;;;;0.00;0.00;;;;;;;;4747192;30;8888;-91
2022/11/08 16:10:41;;;;;;;;;0.00;0.00;;;;;;;;4741259;30;9047;-96
2022/11/08 16:13:09;;;;;;;;;0.00;0.00;;;;;;;;4745162;30;11730;-92